createdAt,value
2022-08-31T00:01:12.176Z,101546.06
2022-08-31T00:02:32.546Z,101540.88
2022-08-31T00:03:54.184Z,101545.59
2022-08-31T00:04:57.524Z,101542.22
2022-08-31T00:06:00.835Z,101548.63
2022-08-31T00:07:03.519Z,101549.00
2022-08-31T00:08:05.625Z,101551.69
2022-08-31T00:09:08.942Z,101546.28
2022-08-31T00:10:14.666Z,101548.34
2022-08-31T00:11:18.511Z,101549.19
2022-08-31T00:12:20.923Z,101545.63
2022-08-31T00:13:24.691Z,101542.94
2022-08-31T00:14:26.565Z,101548.34
2022-08-31T00:15:29.958Z,101546.63
2022-08-31T00:16:35.487Z,101543.09
2022-08-31T00:17:38.673Z,101534.13
2022-08-31T00:18:41.752Z,101531.63
2022-08-31T00:19:44.685Z,101538.88
2022-08-31T00:20:47.489Z,101541.59
2022-08-31T00:21:50.877Z,101536.19
2022-08-31T00:22:53.419Z,101536.19
2022-08-31T00:24:01.092Z,101538.03
2022-08-31T00:25:07.042Z,101539.91
2022-08-31T00:26:09.649Z,101537.38
2022-08-31T00:27:15.494Z,101541.09
2022-08-31T00:28:24.247Z,101539.25
2022-08-31T00:29:26.454Z,101540.25
2022-08-31T00:30:30.917Z,101539.41
2022-08-31T00:31:33.425Z,101536.03
2022-08-31T00:32:42.522Z,101541.44
2022-08-31T00:33:52.620Z,101542.28
2022-08-31T00:34:55.925Z,101546.00
2022-08-31T00:36:00.002Z,101542.28
2022-08-31T00:37:06.739Z,101546.00
2022-08-31T00:38:11.849Z,101536.19
2022-08-31T00:39:15.184Z,101539.09
2022-08-31T00:40:17.750Z,101533.84
2022-08-31T00:41:24.741Z,101536.75
2022-08-31T00:42:29.173Z,101531.69
2022-08-31T00:43:43.064Z,101526.28
2022-08-31T00:44:46.956Z,101522.06
2022-08-31T00:45:51.395Z,101524.06
2022-08-31T00:46:53.709Z,101516.16
2022-08-31T00:47:58.305Z,101526.47
2022-08-31T00:49:07.352Z,101514.97
2022-08-31T00:50:13.217Z,101518.03
2022-08-31T00:51:18.775Z,101514.66
2022-08-31T00:52:27.281Z,101508.41
2022-08-31T00:53:32.309Z,101512.31
2022-08-31T00:54:44.121Z,101517.72
2022-08-31T00:55:48.198Z,101518.72
2022-08-31T00:56:52.818Z,101511.63
2022-08-31T00:58:01.130Z,101520.75
2022-08-31T00:59:10.077Z,101515.34
2022-08-31T01:00:22.472Z,101523.63
2022-08-31T01:01:30.523Z,101521.91
2022-08-31T01:02:37.522Z,101526.50
2022-08-31T01:03:42.158Z,101526.50
2022-08-31T01:04:53.135Z,101523.97
2022-08-31T01:05:56.071Z,101525.16
2022-08-31T01:06:59.733Z,101523.47
2022-08-31T01:08:03.378Z,101525.50
2022-08-31T01:09:08.385Z,101527.50
2022-08-31T01:10:10.748Z,101522.44
2022-08-31T01:11:14.173Z,101526.34
2022-08-31T01:12:15.957Z,101530.22
2022-08-31T01:13:19.375Z,101524.16
2022-08-31T01:14:21.289Z,101521.78
2022-08-31T01:15:25.531Z,101526.53
2022-08-31T01:16:33.463Z,101525.88
2022-08-31T01:17:37.651Z,101523.31
2022-08-31T01:18:41.254Z,101526.22
2022-08-31T01:19:51.164Z,101529.06
2022-08-31T01:21:02.616Z,101527.56
2022-08-31T01:22:15.919Z,101537.66
2022-08-31T01:23:23.174Z,101534.28
2022-08-31T01:24:28.621Z,101541.03
2022-08-31T01:25:33.450Z,101530.25
2022-08-31T01:26:39.029Z,101530.44
2022-08-31T01:27:41.237Z,101525.88
2022-08-31T01:28:44.531Z,101529.56
2022-08-31T01:29:46.410Z,101526.19
2022-08-31T01:31:01.026Z,101530.06
2022-08-31T01:32:04.464Z,101531.25
2022-08-31T01:33:07.565Z,101537.50
2022-08-31T01:34:11.534Z,101528.56
2022-08-31T01:35:14.300Z,101530.59
2022-08-31T01:36:16.696Z,101525.34
2022-08-31T01:37:19.566Z,101537.13
2022-08-31T01:38:34.361Z,101534.63
2022-08-31T01:39:37.052Z,101537.44
2022-08-31T01:40:48.495Z,101541.19
2022-08-31T01:41:51.744Z,101535.09
2022-08-31T01:42:57.200Z,101538.63
2022-08-31T01:44:01.782Z,101529.88
2022-08-31T01:45:08.020Z,101539.97
2022-08-31T01:46:13.472Z,101532.91
2022-08-31T01:47:15.430Z,101539.31
2022-08-31T01:48:18.836Z,101530.56
2022-08-31T01:49:23.118Z,101537.94
2022-08-31T01:50:25.823Z,101547.03
2022-08-31T01:51:27.763Z,101540.97
2022-08-31T01:52:30.509Z,101546.38
2022-08-31T01:53:34.474Z,101543.00
2022-08-31T01:54:37.706Z,101538.63
2022-08-31T01:55:39.995Z,101547.69
2022-08-31T01:56:44.983Z,101546.03
2022-08-31T01:57:46.710Z,101536.41
2022-08-31T01:58:49.509Z,101541.97
2022-08-31T01:59:51.132Z,101542.97
2022-08-31T02:00:54.402Z,101546.69
2022-08-31T02:01:57.276Z,101540.63
2022-08-31T02:03:02.370Z,101559.47
2022-08-31T02:04:06.645Z,101546.00
2022-08-31T02:05:10.123Z,101552.41
2022-08-31T02:06:13.755Z,101544.31
2022-08-31T02:07:16.369Z,101543.66
2022-08-31T02:08:18.501Z,101552.72
2022-08-31T02:09:23.586Z,101551.06
2022-08-31T02:10:25.665Z,101559.31
2022-08-31T02:11:28.449Z,101557.47
2022-08-31T02:12:30.023Z,101555.59
2022-08-31T02:13:33.203Z,101554.75
2022-08-31T02:14:35.492Z,101556.47
2022-08-31T02:15:39.783Z,101555.44
2022-08-31T02:16:41.814Z,101551.06
2022-08-31T02:17:44.620Z,101553.59
2022-08-31T02:18:46.345Z,101554.44
2022-08-31T02:19:49.082Z,101540.94
2022-08-31T02:20:51.064Z,101545.34
2022-08-31T02:21:53.932Z,101554.44
2022-08-31T02:22:55.723Z,101551.88
2022-08-31T02:23:58.725Z,101558.13
2022-08-31T02:25:02.016Z,101556.28
2022-08-31T02:26:05.138Z,101558.13
2022-08-31T02:27:07.261Z,101558.31
2022-08-31T02:28:12.681Z,101561.66
2022-08-31T02:29:14.924Z,101551.06
2022-08-31T02:30:20.222Z,101554.44
2022-08-31T02:31:21.971Z,101552.72
2022-08-31T02:32:25.791Z,101554.44
2022-08-31T02:33:27.840Z,101551.06
2022-08-31T02:34:30.811Z,101556.47
2022-08-31T02:35:32.734Z,101553.91
2022-08-31T02:36:35.883Z,101560.16
2022-08-31T02:37:38.146Z,101556.59
2022-08-31T02:38:41.406Z,101560.16
2022-08-31T02:39:44.761Z,101558.47
2022-08-31T02:40:49.137Z,101553.91
2022-08-31T02:41:51.732Z,101555.75
2022-08-31T02:42:54.999Z,101556.78
2022-08-31T02:43:56.702Z,101559.31
2022-08-31T02:44:59.378Z,101558.47
2022-08-31T02:46:01.166Z,101560.16
2022-08-31T02:47:04.021Z,101562.19
2022-08-31T02:48:08.266Z,101556.78
2022-08-31T02:49:11.011Z,101562.19
2022-08-31T02:50:12.893Z,101554.09
2022-08-31T02:51:15.517Z,101555.59
2022-08-31T02:52:17.193Z,101556.47
2022-08-31T02:53:22.824Z,101554.44
2022-08-31T02:54:25.118Z,101554.44
2022-08-31T02:55:28.958Z,101554.56
2022-08-31T02:56:32.431Z,101556.47
2022-08-31T02:57:35.376Z,101560.16
2022-08-31T02:58:37.421Z,101559.16
2022-08-31T02:59:40.918Z,101554.75
2022-08-31T03:00:45.572Z,101559.97
2022-08-31T03:01:49.951Z,101555.59
2022-08-31T03:02:55.804Z,101554.75
2022-08-31T03:04:00.879Z,101557.47
2022-08-31T03:05:08.170Z,101556.78
2022-08-31T03:06:10.930Z,101554.25
2022-08-31T03:07:13.357Z,101557.13
2022-08-31T03:08:16.869Z,101548.00
2022-08-31T03:09:19.908Z,101555.44
2022-08-31T03:10:24.652Z,101559.13
2022-08-31T03:11:27.570Z,101554.72
2022-08-31T03:12:32.142Z,101554.91
2022-08-31T03:13:36.460Z,101554.06
2022-08-31T03:14:39.425Z,101553.41
2022-08-31T03:15:42.556Z,101554.38
2022-08-31T03:16:46.584Z,101550.00
2022-08-31T03:17:54.401Z,101554.72
2022-08-31T03:19:01.019Z,101560.97
2022-08-31T03:20:05.879Z,101559.25
2022-08-31T03:21:08.866Z,101560.44
2022-08-31T03:22:13.233Z,101556.03
2022-08-31T03:23:16.696Z,101563.47
2022-08-31T03:24:18.441Z,101555.38
2022-08-31T03:25:25.050Z,101559.06
2022-08-31T03:26:27.721Z,101559.25
2022-08-31T03:27:33.531Z,101557.38
2022-08-31T03:28:37.245Z,101549.47
2022-08-31T03:29:42.367Z,101553.00
2022-08-31T03:30:44.391Z,101555.00
2022-08-31T03:31:47.422Z,101548.97
2022-08-31T03:32:50.178Z,101547.25
2022-08-31T03:33:55.581Z,101546.41
2022-08-31T03:35:00.512Z,101543.91
2022-08-31T03:36:04.719Z,101545.75
2022-08-31T03:37:07.727Z,101544.22
2022-08-31T03:38:10.422Z,101545.22
2022-08-31T03:39:13.173Z,101538.13
2022-08-31T03:40:15.333Z,101540.03
2022-08-31T03:41:22.945Z,101545.41
2022-08-31T03:42:25.981Z,101544.56
2022-08-31T03:43:31.748Z,101541.00
2022-08-31T03:44:33.932Z,101542.84
2022-08-31T03:45:36.610Z,101544.88
2022-08-31T03:46:45.305Z,101544.03
2022-08-31T03:47:47.413Z,101552.97
2022-08-31T03:48:50.387Z,101548.56
2022-08-31T03:49:52.594Z,101551.25
2022-08-31T03:50:55.398Z,101543.50
2022-08-31T03:51:57.556Z,101548.91
2022-08-31T03:53:04.061Z,101548.06
2022-08-31T03:54:05.750Z,101551.72
2022-08-31T03:55:10.690Z,101553.72
2022-08-31T03:56:12.251Z,101551.03
2022-08-31T03:57:15.252Z,101555.56
2022-08-31T03:58:16.907Z,101555.56
2022-08-31T03:59:20.979Z,101561.94
2022-08-31T04:00:23.019Z,101552.34
2022-08-31T04:01:25.688Z,101569.34
2022-08-31T04:02:27.402Z,101564.97
2022-08-31T04:03:30.237Z,101566.00
2022-08-31T04:04:32.343Z,101568.50
2022-08-31T04:05:42.806Z,101561.44
2022-08-31T04:06:44.931Z,101563.31
2022-08-31T04:07:47.845Z,101563.31
2022-08-31T04:08:50.421Z,101566.00
2022-08-31T04:09:52.150Z,101567.66
2022-08-31T04:10:55.139Z,101570.34
2022-08-31T04:11:56.776Z,101567.66
2022-08-31T04:12:59.437Z,101570.34
2022-08-31T04:14:01.260Z,101564.97
2022-08-31T04:15:05.902Z,101567.66
2022-08-31T04:16:12.026Z,101566.81
2022-08-31T04:17:14.106Z,101564.13
2022-08-31T04:18:16.708Z,101564.31
2022-08-31T04:19:20.061Z,101565.16
2022-08-31T04:20:29.907Z,101561.59
2022-08-31T04:21:31.947Z,101558.91
2022-08-31T04:22:34.930Z,101557.22
2022-08-31T04:23:39.324Z,101561.59
2022-08-31T04:24:41.931Z,101558.91
2022-08-31T04:25:43.525Z,101563.44
2022-08-31T04:26:46.213Z,101562.59
2022-08-31T04:27:50.243Z,101563.63
2022-08-31T04:28:54.152Z,101565.28
2022-08-31T04:29:55.779Z,101567.97
2022-08-31T04:30:59.753Z,101559.91
2022-08-31T04:32:01.478Z,101563.63
2022-08-31T04:33:04.405Z,101564.44
2022-08-31T04:34:06.149Z,101566.31
2022-08-31T04:35:10.046Z,101567.97
2022-08-31T04:36:14.328Z,101570.69
2022-08-31T04:37:16.913Z,101563.44
2022-08-31T04:38:18.593Z,101570.34
2022-08-31T04:39:22.795Z,101565.16
2022-08-31T04:40:26.425Z,101567.66
2022-08-31T04:41:31.568Z,101567.66
2022-08-31T04:42:37.062Z,101568.69
2022-08-31T04:43:41.410Z,101554.38
2022-08-31T04:44:43.030Z,101564.31
2022-08-31T04:45:46.000Z,101562.59
2022-08-31T04:46:49.158Z,101562.44
2022-08-31T04:47:51.741Z,101569.69
2022-08-31T04:48:53.315Z,101567.97
2022-08-31T04:49:56.468Z,101575.06
2022-08-31T04:51:01.757Z,101567.00
2022-08-31T04:52:04.486Z,101567.00
2022-08-31T04:53:06.372Z,101569.69
2022-08-31T04:54:11.090Z,101571.38
2022-08-31T04:55:12.880Z,101567.00
2022-08-31T04:56:17.536Z,101575.06
2022-08-31T04:57:19.313Z,101574.41
2022-08-31T04:58:23.574Z,101567.97
2022-08-31T04:59:27.455Z,101575.38
2022-08-31T05:00:29.291Z,101573.69
2022-08-31T05:01:36.059Z,101571.72
2022-08-31T05:02:50.035Z,101569.00
2022-08-31T05:03:57.113Z,101568.31
2022-08-31T05:05:00.259Z,101572.00
2022-08-31T05:06:02.992Z,101575.72
2022-08-31T05:07:04.724Z,101574.00
2022-08-31T05:08:07.530Z,101579.56
2022-08-31T05:09:12.314Z,101580.41
2022-08-31T05:10:15.008Z,101579.72
2022-08-31T05:11:21.798Z,101583.41
2022-08-31T05:12:27.452Z,101582.75
2022-08-31T05:13:29.096Z,101581.88
2022-08-31T05:14:31.667Z,101585.56
2022-08-31T05:15:33.562Z,101584.06
2022-08-31T05:16:38.878Z,101587.72
2022-08-31T05:17:40.464Z,101582.34
2022-08-31T05:18:46.824Z,101582.34
2022-08-31T05:19:49.067Z,101586.06
2022-08-31T05:20:51.632Z,101588.06
2022-08-31T05:21:53.331Z,101583.84
2022-08-31T05:22:58.837Z,101582.16
2022-08-31T05:24:02.724Z,101586.72
2022-08-31T05:25:07.029Z,101582.31
2022-08-31T05:26:09.462Z,101585.00
2022-08-31T05:27:12.775Z,101583.31
2022-08-31T05:28:14.741Z,101590.41
2022-08-31T05:29:19.764Z,101580.81
2022-08-31T05:30:21.459Z,101588.69
2022-08-31T05:31:24.721Z,101587.84
2022-08-31T05:32:26.475Z,101586.19
2022-08-31T05:33:30.394Z,101585.16
2022-08-31T05:34:34.466Z,101588.69
2022-08-31T05:35:36.233Z,101590.41
2022-08-31T05:36:39.732Z,101585.00
2022-08-31T05:37:42.348Z,101583.31
2022-08-31T05:38:45.163Z,101588.69
2022-08-31T05:39:46.806Z,101589.41
2022-08-31T05:40:53.237Z,101591.06
2022-08-31T05:41:55.789Z,101597.47
2022-08-31T05:42:59.482Z,101589.41
2022-08-31T05:44:03.228Z,101585.88
2022-08-31T05:45:05.714Z,101585.88
2022-08-31T05:46:10.721Z,101586.72
2022-08-31T05:47:13.553Z,101584.03
2022-08-31T05:48:15.823Z,101583.84
2022-08-31T05:49:18.903Z,101586.41
2022-08-31T05:50:22.182Z,101586.41
2022-08-31T05:51:24.912Z,101595.81
2022-08-31T05:52:26.803Z,101592.50
2022-08-31T05:53:29.604Z,101588.47
2022-08-31T05:54:33.889Z,101585.97
2022-08-31T05:55:36.888Z,101584.66
2022-08-31T05:56:41.823Z,101587.72
2022-08-31T05:57:45.105Z,101585.75
2022-08-31T05:58:49.622Z,101584.56
2022-08-31T05:59:51.404Z,101590.66
2022-08-31T06:00:54.210Z,101585.94
2022-08-31T06:01:56.125Z,101582.91
2022-08-31T06:02:59.184Z,101583.91
2022-08-31T06:04:03.044Z,101580.56
2022-08-31T06:05:06.117Z,101578.84
2022-08-31T06:06:11.320Z,101590.81
2022-08-31T06:07:13.200Z,101591.97
2022-08-31T06:08:15.803Z,101587.72
2022-08-31T06:09:17.492Z,101586.19
2022-08-31T06:10:20.787Z,101590.03
2022-08-31T06:11:24.891Z,101596.28
2022-08-31T06:12:27.856Z,101585.50
2022-08-31T06:13:29.858Z,101593.94
2022-08-31T06:14:32.839Z,101596.19
2022-08-31T06:15:34.528Z,101590.34
2022-08-31T06:16:44.835Z,101596.06
2022-08-31T06:17:46.676Z,101592.03
2022-08-31T06:18:50.736Z,101584.63
2022-08-31T06:19:52.501Z,101592.38
2022-08-31T06:21:02.488Z,101591.41
2022-08-31T06:22:05.809Z,101586.53
2022-08-31T06:23:09.543Z,101594.47
2022-08-31T06:24:12.821Z,101590.72
2022-08-31T06:25:19.353Z,101587.03
2022-08-31T06:26:23.005Z,101595.78
2022-08-31T06:27:26.534Z,101593.63
2022-08-31T06:28:32.629Z,101591.44
2022-08-31T06:29:35.319Z,101591.13
2022-08-31T06:30:54.483Z,101589.94
2022-08-31T06:32:00.216Z,101588.78
2022-08-31T06:33:02.123Z,101593.84
2022-08-31T06:34:06.995Z,101593.50
2022-08-31T06:35:09.608Z,101586.94
2022-08-31T06:36:13.936Z,101595.38
2022-08-31T06:37:19.332Z,101595.88
2022-08-31T06:38:21.112Z,101595.56
2022-08-31T06:39:24.169Z,101591.84
2022-08-31T06:40:26.612Z,101595.25
2022-08-31T06:41:36.231Z,101591.53
2022-08-31T06:42:38.692Z,101590.84
2022-08-31T06:43:41.449Z,101595.25
2022-08-31T06:44:43.151Z,101590.00
2022-08-31T06:45:45.886Z,101591.84
2022-08-31T06:46:47.677Z,101594.56
2022-08-31T06:47:50.313Z,101591.72
2022-08-31T06:48:54.495Z,101593.38
2022-08-31T06:49:57.750Z,101595.25
2022-08-31T06:50:59.452Z,101600.63
2022-08-31T06:52:02.054Z,101602.50
2022-08-31T06:53:05.165Z,101599.59
2022-08-31T06:54:28.894Z,101601.13
2022-08-31T06:55:32.257Z,101603.66
2022-08-31T06:56:35.398Z,101601.63
2022-08-31T06:57:38.378Z,101607.72
2022-08-31T06:58:40.086Z,101605.56
2022-08-31T06:59:42.686Z,101607.75
2022-08-31T07:00:45.635Z,101610.81
2022-08-31T07:01:50.067Z,101615.53
2022-08-31T07:02:53.033Z,101616.19
2022-08-31T07:04:02.362Z,101613.16
2022-08-31T07:05:04.483Z,101615.03
2022-08-31T07:06:10.282Z,101612.50
2022-08-31T07:07:12.361Z,101614.34
2022-08-31T07:08:16.308Z,101616.88
2022-08-31T07:09:18.149Z,101618.56
2022-08-31T07:10:20.781Z,101621.94
2022-08-31T07:11:27.588Z,101615.84
2022-08-31T07:12:29.261Z,101621.09
2022-08-31T07:13:31.917Z,101620.25
2022-08-31T07:14:34.382Z,101623.28
2022-08-31T07:15:37.065Z,101629.69
2022-08-31T07:16:40.919Z,101627.50
2022-08-31T07:17:42.613Z,101629.69
2022-08-31T07:18:47.004Z,101624.44
2022-08-31T07:19:49.647Z,101629.84
2022-08-31T07:21:12.294Z,101622.59
2022-08-31T07:22:33.587Z,101629.00
2022-08-31T07:23:57.793Z,101629.66
2022-08-31T07:25:19.562Z,101628.81
2022-08-31T07:26:42.913Z,101631.50
2022-08-31T07:28:05.159Z,101633.50
2022-08-31T07:29:30.057Z,101629.44
2022-08-31T07:30:51.134Z,101631.47
2022-08-31T07:32:15.595Z,101628.78
2022-08-31T07:33:18.173Z,101636.69
2022-08-31T07:34:25.563Z,101633.31
2022-08-31T07:35:27.313Z,101623.38
2022-08-31T07:36:29.885Z,101629.44
2022-08-31T07:37:50.056Z,101631.81
2022-08-31T07:39:11.089Z,101625.28
2022-08-31T07:40:32.696Z,101625.97
2022-08-31T07:41:50.813Z,101632.19
2022-08-31T07:42:55.111Z,101636.91
2022-08-31T07:43:57.153Z,101635.06
2022-08-31T07:45:05.540Z,101632.19
2022-08-31T07:46:08.442Z,101638.09
2022-08-31T07:47:13.425Z,101639.44
2022-08-31T07:48:16.071Z,101643.84
2022-08-31T07:49:18.932Z,101637.44
2022-08-31T07:50:23.445Z,101637.09
2022-08-31T07:51:26.141Z,101640.47
2022-08-31T07:52:31.290Z,101630.19
2022-08-31T07:53:47.473Z,101636.09
2022-08-31T07:54:50.899Z,101642.84
2022-08-31T07:55:56.735Z,101641.66
2022-08-31T07:57:04.271Z,101631.72
2022-08-31T07:58:12.841Z,101644.88
2022-08-31T07:59:15.030Z,101636.63
2022-08-31T08:00:22.384Z,101641.50
2022-08-31T08:01:24.075Z,101649.44
2022-08-31T08:02:29.005Z,101646.56
2022-08-31T08:03:31.846Z,101636.63
2022-08-31T08:04:35.060Z,101639.97
2022-08-31T08:05:38.579Z,101644.22
2022-08-31T08:06:40.225Z,101643.03
2022-08-31T08:07:42.859Z,101647.25
2022-08-31T08:08:50.466Z,101646.25
2022-08-31T08:10:06.852Z,101646.06
2022-08-31T08:11:15.725Z,101650.28
2022-08-31T08:12:20.247Z,101649.09
2022-08-31T08:13:24.307Z,101644.56
2022-08-31T08:14:30.204Z,101651.63
2022-08-31T08:15:35.648Z,101654.31
2022-08-31T08:16:39.880Z,101650.78
2022-08-31T08:17:41.895Z,101654.16
2022-08-31T08:18:44.496Z,101647.56
2022-08-31T08:19:46.220Z,101650.13
2022-08-31T08:20:49.408Z,101649.94
2022-08-31T08:21:51.508Z,101649.59
2022-08-31T08:22:55.479Z,101649.59
2022-08-31T08:23:58.026Z,101646.03
2022-08-31T08:25:01.027Z,101647.22
2022-08-31T08:26:08.838Z,101649.78
2022-08-31T08:27:14.060Z,101645.22
2022-08-31T08:29:40.367Z,101648.25
2022-08-31T08:30:44.096Z,101646.22
2022-08-31T08:31:52.134Z,101647.94
2022-08-31T08:32:53.814Z,101649.94
2022-08-31T08:33:56.929Z,101649.59
2022-08-31T08:34:58.567Z,101648.25
2022-08-31T08:36:07.496Z,101647.06
2022-08-31T08:37:10.862Z,101646.06
2022-08-31T08:38:13.450Z,101649.41
2022-08-31T08:39:16.686Z,101648.06
2022-08-31T08:40:30.965Z,101652.97
2022-08-31T08:41:37.457Z,101649.91
2022-08-31T08:42:41.689Z,101652.09
2022-08-31T08:43:49.993Z,101656.13
2022-08-31T08:44:55.660Z,101652.25
2022-08-31T08:45:57.469Z,101655.63
2022-08-31T08:47:03.656Z,101654.25
2022-08-31T08:48:12.083Z,101657.28
2022-08-31T08:49:22.010Z,101658.78
2022-08-31T08:50:29.727Z,101659.97
2022-08-31T08:51:36.200Z,101661.28
2022-08-31T08:52:42.380Z,101647.41
2022-08-31T08:53:49.194Z,101662.25
2022-08-31T08:54:54.306Z,101662.09
2022-08-31T08:56:08.045Z,101663.75
2022-08-31T08:57:23.826Z,101662.63
2022-08-31T08:58:26.991Z,101655.19
2022-08-31T08:59:29.819Z,101654.16
2022-08-31T09:00:33.117Z,101661.06
2022-08-31T09:01:37.396Z,101655.50
2022-08-31T09:02:46.724Z,101661.56
2022-08-31T09:04:02.412Z,101659.16
2022-08-31T09:05:25.045Z,101658.50
2022-08-31T09:06:40.470Z,101652.38
2022-08-31T09:08:11.427Z,101648.63
2022-08-31T09:09:42.249Z,101654.75
2022-08-31T09:10:49.155Z,101645.63
2022-08-31T09:12:00.107Z,101648.13
2022-08-31T09:13:13.234Z,101649.66
2022-08-31T09:14:30.749Z,101648.63
2022-08-31T09:15:51.590Z,101659.09
2022-08-31T09:17:01.178Z,101647.63
2022-08-31T09:18:13.364Z,101649.66
2022-08-31T09:19:17.276Z,101646.75
2022-08-31T09:20:20.464Z,101647.81
2022-08-31T09:21:25.251Z,101636.13
2022-08-31T09:22:28.295Z,101645.09
2022-08-31T09:23:35.326Z,101645.25
2022-08-31T09:24:38.443Z,101651.88
2022-08-31T09:25:52.412Z,101644.97
2022-08-31T09:27:17.254Z,101652.59
2022-08-31T09:28:34.883Z,101652.09
2022-08-31T09:29:44.011Z,101643.31
2022-08-31T09:30:52.166Z,101649.75
2022-08-31T09:32:06.326Z,101639.94
2022-08-31T09:33:18.035Z,101642.16
2022-08-31T09:34:29.460Z,101645.03
2022-08-31T09:35:40.238Z,101641.66
2022-08-31T09:36:47.041Z,101646.41
2022-08-31T09:37:59.346Z,101644.38
2022-08-31T09:39:17.452Z,101642.50
2022-08-31T09:40:26.762Z,101647.06
2022-08-31T09:41:36.097Z,101639.97
2022-08-31T09:42:42.833Z,101646.22
2022-08-31T09:43:47.688Z,101643.34
2022-08-31T09:44:51.692Z,101644.00
2022-08-31T09:45:59.310Z,101638.25
2022-08-31T09:47:05.570Z,101635.03
2022-08-31T09:48:10.161Z,101642.44
2022-08-31T09:49:19.536Z,101645.25
2022-08-31T09:50:33.138Z,101638.28
2022-08-31T09:51:39.917Z,101640.47
2022-08-31T09:53:00.728Z,101640.78
2022-08-31T09:54:30.402Z,101633.16
2022-08-31T09:55:32.736Z,101635.97
2022-08-31T09:56:52.452Z,101634.59
2022-08-31T09:57:59.395Z,101635.94
2022-08-31T09:59:05.225Z,101631.84
2022-08-31T10:00:15.795Z,101629.44
2022-08-31T10:01:23.500Z,101627.00
2022-08-31T10:02:33.569Z,101631.28
2022-08-31T10:03:38.220Z,101630.91
2022-08-31T10:04:51.215Z,101632.41
2022-08-31T10:05:54.502Z,101633.75
2022-08-31T10:07:08.340Z,101635.22
2022-08-31T10:08:33.944Z,101635.22
2022-08-31T10:09:44.975Z,101628.81
2022-08-31T10:10:51.393Z,101633.19
2022-08-31T10:11:59.679Z,101631.16
2022-08-31T10:13:05.664Z,101629.94
2022-08-31T10:14:17.987Z,101629.56
2022-08-31T10:15:28.489Z,101631.25
2022-08-31T10:16:35.007Z,101634.63
2022-08-31T10:17:41.849Z,101629.03
2022-08-31T10:18:55.742Z,101628.81
2022-08-31T10:20:07.121Z,101625.75
2022-08-31T10:21:14.229Z,101626.59
2022-08-31T10:22:25.625Z,101626.59
2022-08-31T10:23:35.758Z,101627.28
2022-08-31T10:24:46.272Z,101622.69
2022-08-31T10:25:57.660Z,101627.72
2022-08-31T10:27:09.615Z,101625.69
2022-08-31T10:28:18.278Z,101629.03
2022-08-31T10:29:36.173Z,101624.31
2022-08-31T10:30:49.264Z,101624.09
2022-08-31T10:31:56.701Z,101624.31
2022-08-31T10:33:06.900Z,101625.81
2022-08-31T10:34:31.323Z,101631.22
2022-08-31T10:35:45.010Z,101629.34
2022-08-31T10:36:52.334Z,101629.16
2022-08-31T10:38:08.677Z,101623.75
2022-08-31T10:39:25.302Z,101627.94
2022-08-31T10:40:33.302Z,101627.13
2022-08-31T10:41:44.674Z,101619.47
2022-08-31T10:42:59.476Z,101617.41
2022-08-31T10:44:24.811Z,101622.44
2022-08-31T10:45:32.276Z,101616.88
2022-08-31T10:46:37.840Z,101625.00
2022-08-31T10:47:46.750Z,101626.47
2022-08-31T10:48:55.173Z,101621.53
2022-08-31T10:50:00.905Z,101623.69
2022-08-31T10:51:22.205Z,101625.03
2022-08-31T10:52:33.288Z,101621.94
2022-08-31T10:54:03.000Z,101613.81
2022-08-31T10:55:29.551Z,101620.91
2022-08-31T10:56:44.148Z,101617.16
2022-08-31T10:57:52.053Z,101621.38
2022-08-31T10:59:04.641Z,101616.22
2022-08-31T11:00:09.585Z,101621.94
2022-08-31T11:01:22.013Z,101614.47
2022-08-31T11:02:57.928Z,101617.81
2022-08-31T11:04:34.733Z,101619.50
2022-08-31T11:05:45.471Z,101617.63
2022-08-31T11:06:55.750Z,101618.75
2022-08-31T11:08:07.353Z,101619.22
2022-08-31T11:09:20.638Z,101628.84
2022-08-31T11:10:33.751Z,101620.91
2022-08-31T11:11:44.056Z,101617.19
2022-08-31T11:12:52.261Z,101617.53
2022-08-31T11:14:17.436Z,101620.44
2022-08-31T11:15:46.300Z,101628.09
2022-08-31T11:17:04.949Z,101631.19
2022-08-31T11:18:41.378Z,101624.06
2022-08-31T11:20:09.039Z,101612.22
2022-08-31T11:21:29.867Z,101628.09
2022-08-31T11:22:52.707Z,101627.09
2022-08-31T11:24:06.702Z,101620.06
2022-08-31T11:25:36.416Z,101620.31
2022-08-31T11:26:59.088Z,101620.78
2022-08-31T11:28:09.216Z,101625.66
2022-08-31T11:29:25.416Z,101609.84
2022-08-31T11:30:38.732Z,101616.19
2022-08-31T11:31:43.880Z,101615.22
2022-08-31T11:32:52.162Z,101616.00
2022-08-31T11:34:16.202Z,101615.06
2022-08-31T11:35:57.565Z,101611.75
2022-08-31T11:37:05.041Z,101609.56
2022-08-31T11:38:07.913Z,101614.22
2022-08-31T11:39:38.071Z,101612.59
2022-08-31T11:41:00.317Z,101607.22
2022-08-31T11:42:12.558Z,101609.19
2022-08-31T11:43:45.892Z,101606.53
2022-08-31T11:45:06.294Z,101615.13
2022-08-31T11:46:47.615Z,101613.06
2022-08-31T11:47:55.096Z,101601.16
2022-08-31T11:49:01.951Z,101604.16
2022-08-31T11:50:11.372Z,101598.34
2022-08-31T11:51:29.741Z,101602.97
2022-08-31T11:52:43.091Z,101607.63
2022-08-31T11:53:49.280Z,101599.28
2022-08-31T11:55:10.257Z,101602.06
2022-08-31T11:56:15.291Z,101600.63
2022-08-31T11:57:21.246Z,101596.66
2022-08-31T11:58:37.934Z,101604.81
2022-08-31T11:59:44.534Z,101601.25
2022-08-31T12:00:54.451Z,101602.53
2022-08-31T12:02:01.196Z,101599.44
2022-08-31T12:03:09.806Z,101596.94
2022-08-31T12:04:52.385Z,101592.34
2022-08-31T12:05:58.320Z,101602.38
2022-08-31T12:07:05.008Z,101593.19
2022-08-31T12:08:15.442Z,101594.88
2022-08-31T12:09:52.708Z,101589.22
2022-08-31T12:11:04.239Z,101589.06
2022-08-31T12:12:19.975Z,101588.66
2022-08-31T12:13:39.712Z,101591.59
2022-08-31T12:14:50.174Z,101581.81
2022-08-31T12:16:28.195Z,101585.38
2022-08-31T12:17:40.671Z,101586.66
2022-08-31T12:19:01.429Z,101580.22
2022-08-31T12:20:12.969Z,101580.22
2022-08-31T12:21:44.775Z,101584.41
2022-08-31T12:23:39.499Z,101583.38
2022-08-31T12:24:56.001Z,101577.97
2022-08-31T12:26:10.997Z,101584.72
2022-08-31T12:27:33.697Z,101589.34
2022-08-31T12:28:52.707Z,101585.19
2022-08-31T12:30:14.085Z,101579.53
2022-08-31T12:31:18.879Z,101586.44
2022-08-31T12:32:28.733Z,101574.75
2022-08-31T12:33:34.880Z,101574.75
2022-08-31T12:34:40.956Z,101573.06
2022-08-31T12:35:46.208Z,101581.41
2022-08-31T12:36:49.386Z,101569.69
2022-08-31T12:38:00.340Z,101566.34
2022-08-31T12:39:09.942Z,101573.03
2022-08-31T12:40:19.119Z,101570.91
2022-08-31T12:41:25.300Z,101575.72
2022-08-31T12:42:27.377Z,101575.06
2022-08-31T12:43:39.469Z,101569.00
2022-08-31T12:44:49.504Z,101574.41
2022-08-31T12:46:10.273Z,101572.06
2022-08-31T12:47:27.047Z,101565.06
2022-08-31T12:48:42.909Z,101571.09